createdAt,value
2019-01-23T00:02:21.231Z,66.37
2019-01-23T00:07:23.737Z,66.10
2019-01-23T00:12:26.239Z,64.97
2019-01-23T00:17:28.764Z,63.27
2019-01-23T00:22:31.299Z,65.07
2019-01-23T00:27:33.807Z,58.43
2019-01-23T00:32:36.320Z,62.80
2019-01-23T00:37:38.832Z,64.40
2019-01-23T00:42:41.344Z,60.03
2019-01-23T00:47:43.917Z,67.33
2019-01-23T00:52:46.437Z,64.90
2019-01-23T00:57:48.950Z,64.53
2019-01-23T01:02:53.728Z,62.23
2019-01-23T01:07:56.336Z,60.30
2019-01-23T01:12:58.860Z,60.33
2019-01-23T01:18:01.360Z,65.03
2019-01-23T01:23:04.296Z,69.73
2019-01-23T01:28:06.807Z,67.30
2019-01-23T01:33:09.329Z,63.37
2019-01-23T01:38:11.842Z,65.50
2019-01-23T01:43:14.369Z,66.50
2019-01-23T01:48:16.960Z,68.27
2019-01-23T01:53:19.473Z,69.83
2019-01-23T01:58:22.007Z,74.10
2019-01-23T02:03:24.833Z,69.63
2019-01-23T02:08:27.327Z,73.03
2019-01-23T02:13:29.892Z,67.40
2019-01-23T02:18:32.413Z,75.20
2019-01-23T02:23:34.930Z,69.23
2019-01-23T02:28:37.427Z,69.23
2019-01-23T02:33:39.924Z,69.63
2019-01-23T02:38:42.456Z,64.70
2019-01-23T02:43:45.037Z,69.03
2019-01-23T02:48:47.819Z,72.23
2019-01-23T02:53:50.327Z,66.70
2019-01-23T02:58:52.850Z,73.83
2019-01-23T03:03:55.376Z,66.90
2019-01-23T03:08:57.904Z,69.10
2019-01-23T03:14:00.443Z,71.43
2019-01-23T03:19:03.368Z,69.60
2019-01-23T03:24:06.282Z,68.70
2019-01-23T03:29:08.789Z,69.90
2019-01-23T03:34:11.317Z,75.70
2019-01-23T03:39:13.828Z,75.77
2019-01-23T03:44:16.349Z,76.03
2019-01-23T03:49:18.916Z,73.37
2019-01-23T03:54:21.685Z,74.63
2019-01-23T03:59:24.183Z,76.57
2019-01-23T04:04:26.700Z,74.57
2019-01-23T04:09:29.227Z,72.90
2019-01-23T04:14:31.762Z,74.57
2019-01-23T04:19:34.283Z,73.20
2019-01-23T04:24:36.796Z,69.93
2019-01-23T04:29:39.974Z,73.77
2019-01-23T04:34:42.548Z,74.47
2019-01-23T04:39:45.064Z,73.10
2019-01-23T04:44:47.568Z,73.83
2019-01-23T04:49:50.125Z,63.63
2019-01-23T04:54:52.654Z,82.33
2019-01-23T04:59:55.191Z,77.80
2019-01-23T05:04:57.712Z,74.23
2019-01-23T05:10:00.260Z,68.77
2019-01-23T05:15:02.984Z,74.27
2019-01-23T05:20:05.960Z,74.60
2019-01-23T05:25:27.965Z,67.47
2019-01-23T05:30:30.526Z,69.83
2019-01-23T05:35:33.032Z,66.10
2019-01-23T05:40:35.572Z,72.67
2019-01-23T05:45:38.079Z,69.67
2019-01-23T05:50:40.663Z,68.77
2019-01-23T05:55:43.160Z,65.43
2019-01-23T06:00:45.695Z,67.97
2019-01-23T06:05:48.542Z,68.50
2019-01-23T06:10:51.046Z,67.57
2019-01-23T06:15:55.369Z,69.17
2019-01-23T06:20:57.873Z,66.13
2019-01-23T06:26:00.402Z,64.93
2019-01-23T06:31:02.926Z,64.20
2019-01-23T06:36:05.598Z,66.80
2019-01-23T06:41:09.894Z,68.13
2019-01-23T06:46:12.733Z,139.77
2019-01-23T06:51:15.311Z,76.33
2019-01-23T06:56:17.824Z,68.23
2019-01-23T07:01:20.392Z,64.53
2019-01-23T07:06:22.907Z,65.83
2019-01-23T07:11:25.437Z,64.13
2019-01-23T07:16:27.945Z,67.20
2019-01-23T07:21:30.488Z,66.80
2019-01-23T07:26:33.061Z,63.67
2019-01-23T07:31:35.620Z,61.50
2019-01-23T07:36:38.133Z,65.60
2019-01-23T07:41:40.684Z,63.07
2019-01-23T07:46:43.236Z,62.60
2019-01-23T07:51:45.817Z,65.30
2019-01-23T07:56:48.369Z,69.47
2019-01-23T08:01:50.891Z,62.33
2019-01-23T08:06:53.407Z,61.57
2019-01-23T08:11:55.933Z,55.67
2019-01-23T08:16:58.498Z,56.00
2019-01-23T08:22:01.065Z,58.50
2019-01-23T08:27:07.080Z,62.97
2019-01-23T08:32:08.451Z,56.03
2019-01-23T08:37:10.991Z,65.77
2019-01-23T08:42:13.513Z,53.70
2019-01-23T08:47:16.084Z,57.97
2019-01-23T08:52:18.664Z,57.63
2019-01-23T08:57:21.193Z,56.43
2019-01-23T09:02:23.720Z,59.80
2019-01-23T09:07:26.265Z,61.13
2019-01-23T09:12:28.787Z,58.97
2019-01-23T09:17:31.316Z,59.83
2019-01-23T09:22:33.874Z,59.50
2019-01-23T09:27:36.432Z,62.00
2019-01-23T09:33:17.071Z,64.63
2019-01-23T09:38:32.613Z,62.27
2019-01-23T09:44:04.185Z,58.53
2019-01-23T09:49:23.065Z,59.67
2019-01-23T09:54:25.914Z,60.73
2019-01-23T09:59:28.662Z,59.50
2019-01-23T10:04:31.220Z,62.33
2019-01-23T10:09:33.978Z,62.20
2019-01-23T10:14:36.603Z,60.57
2019-01-23T10:19:39.147Z,62.43
2019-01-23T10:24:41.661Z,63.50
2019-01-23T10:29:44.191Z,55.13
2019-01-23T10:34:46.702Z,58.83
2019-01-23T10:39:49.247Z,60.13
2019-01-23T10:44:51.743Z,62.90
2019-01-23T10:49:54.232Z,57.23
2019-01-23T10:54:56.788Z,57.77
2019-01-23T10:59:59.348Z,59.13
2019-01-23T11:05:01.861Z,58.33
2019-01-23T11:10:06.729Z,59.40
2019-01-23T11:15:09.560Z,69.73
2019-01-23T11:20:14.489Z,64.43
2019-01-23T11:25:17.204Z,64.37
2019-01-23T11:30:24.663Z,61.83
2019-01-23T11:35:27.189Z,59.97
2019-01-23T11:40:30.518Z,62.57
2019-01-23T11:45:33.030Z,58.83
2019-01-23T11:50:35.592Z,68.03
2019-01-23T11:55:38.128Z,66.73
2019-01-23T12:00:40.672Z,59.70
2019-01-23T12:05:43.195Z,70.77
2019-01-23T12:10:45.704Z,64.30
2019-01-23T12:15:48.244Z,64.80
2019-01-23T12:20:50.777Z,62.80
2019-01-23T12:25:54.404Z,63.20
2019-01-23T12:30:56.916Z,65.93
2019-01-23T12:35:59.426Z,69.83
2019-01-23T12:41:01.977Z,68.87
2019-01-23T12:46:04.519Z,58.77
2019-01-23T12:51:07.093Z,64.57
2019-01-23T12:56:09.637Z,64.93
2019-01-23T13:01:12.153Z,68.87
2019-01-23T13:06:16.590Z,64.70
2019-01-23T13:11:18.989Z,65.13
2019-01-23T13:16:21.522Z,65.60
2019-01-23T13:21:24.100Z,64.53
2019-01-23T13:26:26.615Z,64.60
2019-01-23T13:31:29.135Z,62.83
2019-01-23T13:36:31.660Z,75.03
2019-01-23T13:41:34.200Z,116.90
2019-01-23T13:46:36.712Z,62.67
2019-01-23T13:51:39.280Z,64.53
2019-01-23T13:56:41.820Z,85.47
2019-01-23T14:01:44.333Z,77.07
2019-01-23T14:06:46.853Z,65.13
2019-01-23T14:11:49.374Z,66.57
2019-01-23T14:16:51.891Z,70.73
2019-01-23T14:21:54.407Z,71.03
2019-01-23T14:26:56.937Z,75.90
2019-01-23T14:32:03.245Z,74.20
2019-01-23T14:37:03.867Z,78.67
2019-01-23T14:42:06.368Z,74.30
2019-01-23T14:47:08.877Z,71.57
2019-01-23T14:52:11.635Z,71.73
2019-01-23T14:57:14.151Z,73.93
2019-01-23T15:02:16.677Z,76.93
2019-01-23T15:07:19.199Z,72.77
2019-01-23T15:12:21.736Z,78.03
2019-01-23T15:17:25.221Z,80.57
2019-01-23T15:22:27.718Z,74.73
2019-01-23T15:27:30.221Z,76.30
2019-01-23T15:32:32.736Z,75.13
2019-01-23T15:37:35.220Z,71.77
2019-01-23T15:42:37.747Z,77.57
2019-01-23T15:47:40.263Z,85.97
2019-01-23T15:52:42.819Z,84.97
2019-01-23T15:57:45.286Z,79.73
2019-01-23T16:02:48.666Z,78.33
2019-01-23T16:07:51.179Z,79.40
2019-01-23T16:12:55.503Z,92.00
2019-01-23T16:17:58.307Z,81.43
2019-01-23T16:23:00.813Z,80.37
2019-01-23T16:28:03.320Z,87.13
2019-01-23T16:33:06.461Z,72.43
2019-01-23T16:38:10.217Z,79.60
2019-01-23T16:43:12.734Z,89.27
2019-01-23T16:48:15.236Z,78.13
2019-01-23T16:53:17.772Z,78.30
2019-01-23T16:58:20.266Z,86.90
2019-01-23T17:03:22.766Z,86.23
2019-01-23T17:08:25.285Z,79.17
2019-01-23T17:13:27.766Z,85.27
2019-01-23T17:18:30.295Z,86.87
2019-01-23T17:23:32.856Z,85.37
2019-01-23T17:28:37.136Z,83.40
2019-01-23T17:33:39.669Z,92.73
2019-01-23T17:38:42.293Z,96.10
2019-01-23T17:43:45.180Z,88.47
2019-01-23T17:48:47.664Z,84.17
2019-01-23T17:53:50.272Z,86.27
2019-01-23T17:58:52.764Z,96.40
2019-01-23T18:03:55.260Z,101.80
2019-01-23T18:08:57.767Z,103.13
2019-01-23T18:14:00.276Z,97.10
2019-01-23T18:19:03.293Z,93.83
2019-01-23T18:24:05.917Z,96.23
2019-01-23T18:29:09.927Z,92.30
2019-01-23T18:34:38.524Z,99.20
2019-01-23T18:40:11.472Z,97.80
2019-01-23T18:45:28.528Z,103.33
2019-01-23T18:51:07.380Z,106.83
2019-01-23T18:56:09.920Z,104.03
2019-01-23T19:01:12.610Z,101.17
2019-01-23T19:06:15.428Z,97.97
2019-01-23T19:11:17.910Z,104.10
2019-01-23T19:16:20.443Z,100.83
2019-01-23T19:21:26.092Z,103.07
2019-01-23T19:26:28.550Z,102.27
2019-01-23T19:31:31.037Z,107.40
2019-01-23T19:36:33.541Z,108.57
2019-01-23T19:41:36.093Z,111.63
2019-01-23T19:46:38.580Z,111.13
2019-01-23T19:51:41.153Z,114.90
2019-01-23T19:56:43.661Z,102.47
2019-01-23T20:01:46.160Z,101.83
2019-01-23T20:06:48.671Z,100.77
2019-01-23T20:11:51.162Z,96.23
2019-01-23T20:16:53.692Z,102.43
2019-01-23T20:21:56.216Z,108.60
2019-01-23T20:26:58.703Z,94.90
2019-01-23T20:32:01.261Z,94.33
2019-01-23T20:37:03.762Z,93.97
2019-01-23T20:42:06.252Z,96.40
2019-01-23T20:47:08.772Z,98.10
2019-01-23T20:52:11.316Z,87.30
2019-01-23T20:57:13.812Z,93.33
2019-01-23T21:02:16.298Z,109.73
2019-01-23T21:07:18.824Z,93.80
2019-01-23T21:12:21.313Z,88.20
2019-01-23T21:17:23.855Z,87.20
2019-01-23T21:22:26.373Z,92.27
2019-01-23T21:27:28.882Z,87.97
2019-01-23T21:32:31.396Z,88.30
2019-01-23T21:37:33.932Z,96.00
2019-01-23T21:42:37.564Z,95.20
2019-01-23T21:47:40.108Z,98.27
2019-01-23T21:52:43.104Z,99.20
2019-01-23T21:57:45.623Z,92.57
2019-01-23T22:02:48.152Z,94.77
2019-01-23T22:07:50.847Z,87.47
2019-01-23T22:12:53.352Z,90.83
2019-01-23T22:17:55.850Z,99.10
2019-01-23T22:22:58.372Z,93.40
2019-01-23T22:28:00.885Z,97.60
2019-01-23T22:33:05.609Z,92.40
2019-01-23T22:38:08.122Z,96.53
2019-01-23T22:43:14.997Z,98.27
2019-01-23T22:48:14.925Z,98.80
2019-01-23T22:53:18.291Z,102.77
2019-01-23T22:58:20.841Z,103.03
2019-01-23T23:03:23.635Z,99.40
2019-01-23T23:08:28.092Z,105.73
2019-01-23T23:13:31.028Z,109.13
2019-01-23T23:18:33.785Z,108.57
2019-01-23T23:23:36.305Z,104.13
2019-01-23T23:28:38.824Z,101.60
2019-01-23T23:33:41.367Z,108.83
2019-01-23T23:38:51.520Z,104.80
2019-01-23T23:43:59.627Z,108.07
2019-01-23T23:49:04.148Z,113.23
2019-01-23T23:54:07.888Z,105.20
2019-01-23T23:59:10.391Z,106.07
